Time;durP1;ratioP1;P1;durP2;ratioP2;P2;SDS_P1;SDS_P2;PMS_P1;PMS_P2;Temp;Humidity;BMP_temperature;BMP_pressure;BME280_temperature;BME280_humidity;BME280_pressure;Samples;Min_cycle;Max_cycle;Signal;HPM_P1;HPM_P2
2022/11/10 00:00:22;;;;;;;8.40;2.72;;;10.10;99.90;;;;;;5043859;28;20037;-83
2022/11/10 00:02:48;;;;;;;7.40;2.30;;;10.10;99.90;;;;;;5034152;28;20469;-82
2022/11/10 00:05:14;;;;;;;8.60;2.25;;;10.00;99.90;;;;;;5048186;28;20013;-82
2022/11/10 00:07:41;;;;;;;5.18;1.85;;;10.00;99.90;;;;;;5044199;28;20025;-84
2022/11/10 00:10:07;;;;;;;7.35;2.25;;;10.00;99.90;;;;;;5045683;28;20029;-83
2022/11/10 00:12:34;;;;;;;5.35;2.05;;;10.00;99.90;;;;;;5048017;28;20021;-82
2022/11/10 00:17:45;;;;;;;7.70;1.85;;;9.90;99.90;;;;;;5024746;28;20132;-82
2022/11/10 00:20:12;;;;;;;6.55;1.88;;;9.90;99.90;;;;;;5012925;28;20522;-81
2022/11/10 00:22:40;;;;;;;6.53;2.15;;;9.90;99.90;;;;;;5024506;28;20115;-81
2022/11/10 00:25:09;;;;;;;5.47;1.85;;;9.90;99.90;;;;;;5027495;28;20113;-81
2022/11/10 00:27:35;;;;;;;6.65;1.90;;;9.80;99.90;;;;;;5008672;28;20017;-81
2022/11/10 00:30:01;;;;;;;6.25;1.95;;;9.80;99.90;;;;;;5004418;28;20048;-83
2022/11/10 00:32:27;;;;;;;6.85;1.60;;;9.70;99.90;;;;;;5004189;28;20076;-81
2022/11/10 00:34:52;;;;;;;5.28;1.83;;;9.70;99.90;;;;;;5010631;28;20428;-82
2022/11/10 00:37:19;;;;;;;3.90;1.70;;;9.70;99.90;;;;;;5010398;28;20547;-81
2022/11/10 00:39:45;;;;;;;6.47;1.67;;;9.70;99.90;;;;;;5003998;28;20481;-81
2022/11/10 00:42:11;;;;;;;5.72;2.00;;;9.70;99.90;;;;;;5010714;28;20758;-84
2022/11/10 00:44:36;;;;;;;8.30;2.20;;;9.70;99.90;;;;;;4993039;28;20047;-82
2022/11/10 00:47:02;;;;;;;5.20;1.70;;;9.70;99.90;;;;;;5005239;28;20026;-82
2022/11/10 00:49:28;;;;;;;6.10;1.60;;;9.70;99.90;;;;;;4999822;28;20519;-81
2022/11/10 00:51:54;;;;;;;5.43;1.75;;;9.70;99.90;;;;;;5020575;28;20397;-81
2022/11/10 00:54:21;;;;;;;8.27;1.45;;;9.60;99.90;;;;;;5026525;28;20671;-81
2022/11/10 00:56:47;;;;;;;7.40;2.30;;;9.70;99.90;;;;;;5013086;28;20117;-81
2022/11/10 00:59:13;;;;;;;6.85;1.80;;;9.70;99.90;;;;;;5012684;28;20520;-81
2022/11/10 01:01:39;;;;;;;6.60;1.60;;;9.70;99.90;;;;;;5010569;28;20403;-81
2022/11/10 01:04:05;;;;;;;5.40;1.52;;;9.70;99.90;;;;;;5003758;28;20083;-81
2022/11/10 01:06:32;;;;;;;7.20;1.92;;;9.70;99.90;;;;;;5005733;28;20025;-81
2022/11/10 01:08:57;;;;;;;4.78;1.40;;;9.60;99.90;;;;;;5022249;28;20117;-81
2022/11/10 01:11:27;;;;;;;5.35;1.45;;;9.70;99.90;;;;;;5007788;28;20370;-81
2022/11/10 01:13:55;;;;;;;7.82;1.90;;;9.60;99.90;;;;;;5024300;28;20045;-82
2022/11/10 01:16:29;;;;;;;8.05;2.00;;;9.60;99.90;;;;;;5030917;28;20056;-83
2022/11/10 01:18:57;;;;;;;6.75;2.05;;;9.60;99.90;;;;;;5043226;28;20044;-82
2022/11/10 01:21:24;;;;;;;6.65;1.95;;;9.60;99.90;;;;;;5044688;28;20358;-81
2022/11/10 01:23:50;;;;;;;5.30;1.45;;;9.60;99.90;;;;;;5046176;28;20021;-82
2022/11/10 01:26:16;;;;;;;8.30;1.90;;;9.50;99.90;;;;;;5041324;28;20018;-82
2022/11/10 01:28:42;;;;;;;6.95;1.90;;;9.60;99.90;;;;;;5044982;28;20064;-81
2022/11/10 01:31:11;;;;;;;5.90;1.90;;;9.50;99.90;;;;;;5035993;28;20029;-82
2022/11/10 01:33:37;;;;;;;5.10;1.60;;;9.50;99.90;;;;;;5046059;28;20036;-80
2022/11/10 01:36:04;;;;;;;7.18;1.80;;;9.50;99.90;;;;;;5036640;28;20485;-81
2022/11/10 01:38:32;;;;;;;5.63;1.42;;;9.50;99.90;;;;;;5032217;28;20429;-80
2022/11/10 01:40:58;;;;;;;5.18;1.40;;;9.50;99.90;;;;;;5035351;28;20052;-81
2022/11/10 01:43:26;;;;;;;7.82;2.17;;;9.50;99.90;;;;;;5034255;28;20116;-82
2022/11/10 01:46:12;;;;;;;9.05;1.65;;;9.50;99.90;;;;;;5042397;28;20107;-82
2022/11/10 01:48:48;;;;;;;4.45;1.30;;;9.50;99.90;;;;;;5033073;28;20163;-82
2022/11/10 01:51:25;;;;;;;5.65;1.85;;;9.50;99.90;;;;;;5036904;28;20036;-81
2022/11/10 01:54:00;;;;;;;8.45;2.00;;;9.50;99.90;;;;;;5046848;28;20031;-82
2022/11/10 01:56:29;;;;;;;3.80;1.70;;;9.50;99.90;;;;;;5039054;28;20370;-82
2022/11/10 01:58:59;;;;;;;5.43;1.75;;;9.50;99.90;;;;;;5051506;28;20045;-83
2022/11/10 02:01:25;;;;;;;7.07;2.10;;;9.50;99.90;;;;;;5039223;28;20033;-79
2022/11/10 02:03:55;;;;;;;6.30;1.83;;;9.50;99.90;;;;;;5049975;28;20036;-80
2022/11/10 02:06:25;;;;;;;5.95;1.80;;;9.50;99.90;;;;;;5034040;28;20083;-80
2022/11/10 02:08:52;;;;;;;5.53;1.85;;;9.50;99.90;;;;;;5038736;28;20033;-80
2022/11/10 02:11:18;;;;;;;6.40;1.60;;;9.50;99.90;;;;;;5033518;28;20469;-80
2022/11/10 02:13:44;;;;;;;7.80;1.90;;;9.50;99.90;;;;;;5042799;28;20053;-81
2022/11/10 02:16:10;;;;;;;7.63;1.95;;;9.50;99.90;;;;;;5033172;28;20037;-80
2022/11/10 02:18:37;;;;;;;4.43;1.60;;;9.50;99.90;;;;;;5031733;28;20026;-80
2022/11/10 02:21:04;;;;;;;10.13;2.17;;;9.50;99.90;;;;;;5031707;28;20025;-82
2022/11/10 02:23:30;;;;;;;8.15;2.30;;;9.50;99.90;;;;;;5031804;28;20174;-81
2022/11/10 02:25:57;;;;;;;8.35;1.80;;;9.50;99.90;;;;;;5043389;28;20075;-82
2022/11/10 02:28:24;;;;;;;3.88;1.50;;;9.50;99.90;;;;;;5036953;28;20036;-81
2022/11/10 02:30:50;;;;;;;6.13;1.80;;;9.50;99.90;;;;;;5039538;28;20037;-81
2022/11/10 02:33:16;;;;;;;6.35;1.70;;;9.50;99.90;;;;;;5039485;28;20020;-82
2022/11/10 02:35:45;;;;;;;6.55;1.98;;;9.50;99.90;;;;;;5031534;28;20369;-82
2022/11/10 02:38:11;;;;;;;4.57;1.50;;;9.50;99.90;;;;;;5038364;28;20043;-82
2022/11/10 02:40:36;;;;;;;6.28;1.50;;;9.60;99.90;;;;;;5045794;28;20017;-81
2022/11/10 02:43:08;;;;;;;6.07;2.20;;;9.70;99.90;;;;;;5045733;28;20048;-81
2022/11/10 02:45:34;;;;;;;7.22;2.35;;;9.70;99.90;;;;;;5031390;28;20029;-84
2022/11/10 02:47:59;;;;;;;6.60;2.38;;;9.70;99.90;;;;;;5032696;28;20031;-81
2022/11/10 02:50:25;;;;;;;6.72;2.20;;;9.70;99.90;;;;;;5038263;28;20354;-82
2022/11/10 02:52:51;;;;;;;6.55;2.35;;;9.70;99.90;;;;;;5031588;28;20469;-81
2022/11/10 02:55:16;;;;;;;7.63;2.20;;;9.70;99.90;;;;;;5036096;28;20040;-81
2022/11/10 02:57:42;;;;;;;8.02;2.53;;;9.70;99.90;;;;;;5035097;28;20473;-81
2022/11/10 03:00:08;;;;;;;6.80;2.38;;;9.60;99.90;;;;;;5023948;28;20025;-82
2022/11/10 03:02:35;;;;;;;7.05;2.35;;;9.70;99.90;;;;;;5050862;28;20024;-80
2022/11/10 03:05:01;;;;;;;4.80;2.22;;;9.60;99.90;;;;;;5054013;28;20122;-81
2022/11/10 03:07:26;;;;;;;6.28;2.05;;;9.60;99.90;;;;;;5045601;28;20060;-82
2022/11/10 03:09:52;;;;;;;8.55;2.40;;;9.60;99.90;;;;;;5046743;28;20029;-82
2022/11/10 03:12:18;;;;;;;6.63;2.40;;;9.60;99.90;;;;;;5037785;28;20488;-80
2022/11/10 03:14:43;;;;;;;8.95;2.10;;;9.60;99.90;;;;;;4994596;28;20545;-83
2022/11/10 03:17:09;;;;;;;9.35;2.40;;;9.60;99.90;;;;;;5029196;28;20034;-82
2022/11/10 03:19:35;;;;;;;5.97;2.10;;;9.50;99.90;;;;;;5003703;28;20030;-82
2022/11/10 03:22:01;;;;;;;8.13;2.47;;;9.50;99.90;;;;;;5018840;28;20038;-81
2022/11/10 03:24:27;;;;;;;7.15;2.22;;;9.50;99.90;;;;;;5001219;28;20765;-81
2022/11/10 03:26:53;;;;;;;7.55;2.13;;;9.50;99.90;;;;;;5014825;28;20105;-81
2022/11/10 03:29:18;;;;;;;9.20;3.05;;;9.50;99.90;;;;;;5020756;28;20037;-81
2022/11/10 03:31:44;;;;;;;7.45;2.72;;;9.50;99.90;;;;;;5017207;28;20104;-83
2022/11/10 03:34:09;;;;;;;7.18;2.75;;;9.40;99.90;;;;;;5022993;28;20034;-81
2022/11/10 03:36:35;;;;;;;9.07;2.58;;;9.40;99.90;;;;;;5009557;28;20022;-81
2022/11/10 03:39:01;;;;;;;6.70;2.50;;;9.40;99.90;;;;;;5019442;28;20033;-81
2022/11/10 03:41:27;;;;;;;7.57;2.47;;;9.30;99.90;;;;;;5014701;28;20429;-81
2022/11/10 03:43:52;;;;;;;5.95;2.13;;;9.40;99.90;;;;;;5001666;28;20030;-82
2022/11/10 03:46:18;;;;;;;5.53;1.77;;;9.30;99.90;;;;;;5025143;28;20022;-81
2022/11/10 03:48:44;;;;;;;6.35;2.35;;;9.30;99.90;;;;;;5014400;28;20030;-82
2022/11/10 03:51:09;;;;;;;6.78;2.08;;;9.30;99.90;;;;;;5024739;28;20494;-81
2022/11/10 03:53:35;;;;;;;7.70;2.17;;;9.20;99.90;;;;;;5014901;28;20026;-81
2022/11/10 03:56:03;;;;;;;8.30;2.58;;;9.20;99.90;;;;;;5008671;28;20013;-84
2022/11/10 03:58:28;;;;;;;8.10;2.10;;;9.20;99.90;;;;;;5034107;28;20151;-82
2022/11/10 04:00:55;;;;;;;9.05;2.30;;;9.20;99.90;;;;;;5015595;28;20108;-81
2022/11/10 04:03:21;;;;;;;4.25;1.75;;;9.20;99.90;;;;;;5019647;28;20037;-81
2022/11/10 04:15:40;;;;;;;7.22;1.85;;;9.20;99.90;;;;;;5020058;28;20083;-81
2022/11/10 04:16:46;;;;;;;6.78;2.05;;;9.20;99.90;;;;;;5019453;28;20108;-82
2022/11/10 04:19:12;;;;;;;6.90;1.85;;;9.30;99.90;;;;;;5015296;28;20104;-81
2022/11/10 04:21:37;;;;;;;8.68;2.03;;;9.20;99.90;;;;;;5030158;28;20036;-81
2022/11/10 04:24:03;;;;;;;8.45;2.30;;;9.20;99.90;;;;;;5021142;28;20038;-82
2022/11/10 04:26:29;;;;;;;7.60;2.30;;;9.20;99.90;;;;;;5005385;28;20101;-84
2022/11/10 04:29:04;;;;;;;10.35;2.30;;;9.20;99.90;;;;;;5012268;28;20090;-84
2022/11/10 04:31:32;;;;;;;8.77;2.22;;;9.20;99.90;;;;;;4997856;28;20121;-82
2022/11/10 04:33:58;;;;;;;8.95;2.30;;;9.20;99.90;;;;;;5010280;28;20022;-82
2022/11/10 04:36:26;;;;;;;8.00;2.22;;;9.20;99.90;;;;;;5020526;28;20022;-79
2022/11/10 04:38:54;;;;;;;8.45;2.35;;;9.20;99.90;;;;;;5003675;28;20171;-81
2022/11/10 04:41:20;;;;;;;10.23;2.70;;;9.20;99.90;;;;;;5006462;28;20378;-81
2022/11/10 04:43:46;;;;;;;6.63;2.00;;;9.20;99.90;;;;;;5022062;28;20033;-81
2022/11/10 04:46:18;;;;;;;10.05;2.47;;;9.20;99.90;;;;;;5002755;28;20033;-80
2022/11/10 04:48:43;;;;;;;5.80;1.77;;;9.20;99.90;;;;;;5013013;28;20018;-81
2022/11/10 04:51:10;;;;;;;4.38;1.42;;;9.20;99.90;;;;;;5001649;28;20038;-81
2022/11/10 04:53:36;;;;;;;8.90;1.88;;;9.20;99.90;;;;;;5012823;28;20120;-81
2022/11/10 04:56:01;;;;;;;5.68;1.77;;;9.30;99.90;;;;;;4997536;28;20112;-81
2022/11/10 04:58:27;;;;;;;7.75;2.08;;;9.30;99.90;;;;;;5018613;28;20026;-81
2022/11/10 05:00:53;;;;;;;8.38;2.22;;;9.30;99.90;;;;;;5015715;28;20088;-80
2022/11/10 05:03:18;;;;;;;5.85;1.80;;;9.40;99.90;;;;;;4996813;28;20026;-80
2022/11/10 05:05:44;;;;;;;6.10;1.50;;;9.40;99.90;;;;;;5014795;28;20046;-84
2022/11/10 05:08:10;;;;;;;7.03;1.42;;;9.30;99.90;;;;;;4996614;28;20040;-80
2022/11/10 05:10:37;;;;;;;4.05;1.30;;;9.30;99.90;;;;;;5018694;28;20100;-83
2022/11/10 05:13:03;;;;;;;5.97;1.40;;;9.30;99.90;;;;;;5014198;28;20053;-81
2022/11/10 05:15:30;;;;;;;4.15;1.25;;;9.30;99.90;;;;;;5037113;28;20419;-80
2022/11/10 05:17:56;;;;;;;4.85;1.38;;;9.30;99.90;;;;;;5051950;28;20025;-81
2022/11/10 05:20:24;;;;;;;5.78;1.25;;;9.20;99.90;;;;;;5051504;28;20086;-80
2022/11/10 05:25:38;;;;;;;5.63;1.42;;;9.10;99.90;;;;;;5033837;28;20032;-81
2022/11/10 05:28:05;;;;;;;7.28;1.20;;;9.10;99.90;;;;;;5045149;28;20055;-80
2022/11/10 05:30:31;;;;;;;6.53;1.10;;;9.10;99.90;;;;;;5037184;28;20040;-81
2022/11/10 05:32:57;;;;;;;7.40;1.30;;;9.10;99.90;;;;;;5050580;28;20095;-81
2022/11/10 05:35:23;;;;;;;6.70;1.67;;;9.10;99.90;;;;;;5034121;28;20377;-80
2022/11/10 05:37:49;;;;;;;5.78;1.42;;;9.10;99.90;;;;;;5049111;28;20064;-81
2022/11/10 05:40:17;;;;;;;7.38;2.00;;;9.10;99.90;;;;;;5033222;28;20107;-81
2022/11/10 05:42:51;;;;;;;7.97;1.60;;;9.10;99.90;;;;;;5042024;28;20028;-82
2022/11/10 05:45:19;;;;;;;4.85;1.33;;;9.10;99.90;;;;;;5031944;28;20060;-81
2022/11/10 05:47:44;;;;;;;6.22;1.45;;;9.10;99.90;;;;;;5036476;28;20026;-82
2022/11/10 05:50:11;;;;;;;7.50;2.10;;;9.00;99.90;;;;;;5031871;28;20040;-81
2022/11/10 05:52:47;;;;;;;5.60;1.40;;;9.10;99.90;;;;;;5042281;28;20187;-82
2022/11/10 05:55:14;;;;;;;3.75;1.20;;;9.10;99.90;;;;;;5032007;28;20021;-82
2022/11/10 05:57:45;;;;;;;5.40;1.50;;;9.10;99.90;;;;;;5038424;28;20442;-82
2022/11/10 06:00:13;;;;;;;6.72;1.45;;;9.00;99.90;;;;;;5034159;28;20047;-81
2022/11/10 06:02:40;;;;;;;6.18;1.85;;;9.00;99.90;;;;;;5039900;28;20560;-82
2022/11/10 06:05:06;;;;;;;5.90;1.60;;;9.00;99.90;;;;;;5038702;28;20025;-82
2022/11/10 06:07:32;;;;;;;5.60;1.35;;;9.00;99.90;;;;;;5037044;28;20491;-82
2022/11/10 06:09:58;;;;;;;6.63;1.40;;;9.00;99.90;;;;;;5037191;28;20013;-83
2022/11/10 06:12:29;;;;;;;4.78;1.40;;;9.00;99.90;;;;;;5035927;28;20357;-82
2022/11/10 06:14:57;;;;;;;5.20;1.60;;;9.00;99.90;;;;;;4992000;28;20044;-82
2022/11/10 06:17:26;;;;;;;8.05;1.98;;;9.00;99.90;;;;;;4994290;28;20040;-81
2022/11/10 06:19:55;;;;;;;8.07;1.65;;;9.00;99.90;;;;;;5004071;28;20040;-82
2022/11/10 06:22:20;;;;;;;7.30;2.03;;;9.00;99.90;;;;;;5001796;28;20033;-81
2022/11/10 06:24:46;;;;;;;5.05;1.60;;;9.00;99.90;;;;;;5016080;28;20470;-82
2022/11/10 06:27:12;;;;;;;6.57;1.45;;;9.00;99.90;;;;;;5002405;28;20022;-82
2022/11/10 06:29:37;;;;;;;7.97;2.05;;;9.00;99.90;;;;;;5031656;28;20037;-82
2022/11/10 06:32:03;;;;;;;7.40;2.17;;;9.00;99.90;;;;;;5003590;28;20037;-82
2022/11/10 06:34:32;;;;;;;6.07;1.42;;;9.00;99.90;;;;;;5013334;28;20017;-81
2022/11/10 06:36:58;;;;;;;9.90;1.63;;;9.00;99.90;;;;;;5014874;28;20029;-82
2022/11/10 06:39:27;;;;;;;5.55;1.60;;;9.10;99.90;;;;;;5016344;28;20037;-83
2022/11/10 06:41:54;;;;;;;5.00;1.52;;;9.10;99.90;;;;;;5009253;28;20064;-81
2022/11/10 06:44:20;;;;;;;5.43;1.17;;;9.10;99.90;;;;;;5007473;28;20107;-82
2022/11/10 06:46:49;;;;;;;5.20;1.38;;;9.00;99.90;;;;;;5029618;28;20021;-82
2022/11/10 06:49:15;;;;;;;4.10;1.35;;;9.10;99.90;;;;;;4993149;28;20485;-80
2022/11/10 06:51:44;;;;;;;7.18;1.85;;;9.10;99.90;;;;;;5008380;28;20038;-81
2022/11/10 06:54:18;;;;;;;8.48;1.98;;;9.10;99.90;;;;;;5030309;28;20022;-80
2022/11/10 06:56:47;;;;;;;11.55;2.25;;;9.10;99.90;;;;;;5027407;28;20025;-81
2022/11/10 06:59:13;;;;;;;8.23;1.98;;;9.10;99.90;;;;;;5016089;28;20023;-81
2022/11/10 07:01:42;;;;;;;5.80;1.80;;;9.20;99.90;;;;;;4985725;28;20034;-80
2022/11/10 07:04:08;;;;;;;11.88;2.00;;;9.20;99.90;;;;;;5001947;28;20030;-81
2022/11/10 07:06:34;;;;;;;7.50;1.88;;;9.10;99.90;;;;;;5006417;28;20026;-81
2022/11/10 07:09:00;;;;;;;6.68;1.80;;;9.20;99.90;;;;;;5015994;28;20025;-81
2022/11/10 07:11:26;;;;;;;7.20;1.95;;;9.20;99.90;;;;;;5005286;28;20033;-81
2022/11/10 07:13:52;;;;;;;6.55;1.50;;;9.20;99.90;;;;;;5023444;28;20045;-81
2022/11/10 07:16:21;;;;;;;5.35;1.45;;;9.20;99.90;;;;;;5037253;28;20029;-81
2022/11/10 07:18:50;;;;;;;4.57;1.40;;;9.20;99.90;;;;;;5047332;28;20513;-81
2022/11/10 07:21:16;;;;;;;6.97;1.90;;;9.20;99.90;;;;;;5034589;28;20021;-81
2022/11/10 07:23:42;;;;;;;6.40;1.60;;;9.30;99.90;;;;;;5045331;28;20026;-81
2022/11/10 07:26:10;;;;;;;7.80;2.00;;;9.30;99.90;;;;;;5039347;28;20026;-82
2022/11/10 07:28:41;;;;;;;5.50;1.35;;;9.40;99.90;;;;;;5053915;28;20036;-82
2022/11/10 07:31:07;;;;;;;5.63;1.75;;;9.40;99.90;;;;;;5048370;28;20045;-82
2022/11/10 07:33:33;;;;;;;5.53;1.65;;;9.40;99.90;;;;;;5038276;28;20381;-82
2022/11/10 07:36:06;;;;;;;5.25;2.00;;;9.30;99.90;;;;;;5046566;28;20049;-81
2022/11/10 07:38:31;;;;;;;7.43;1.70;;;9.40;99.90;;;;;;5033896;28;20029;-83
2022/11/10 07:40:57;;;;;;;5.00;1.40;;;9.30;99.90;;;;;;5048043;28;20385;-82
2022/11/10 07:43:24;;;;;;;4.63;1.60;;;9.40;99.90;;;;;;5055019;28;20051;-80
2022/11/10 07:45:51;;;;;;;5.45;1.33;;;9.40;99.90;;;;;;5048664;28;20017;-81
2022/11/10 07:48:17;;;;;;;5.43;1.67;;;9.40;99.90;;;;;;5046273;28;20021;-83
2022/11/10 07:50:44;;;;;;;5.40;1.80;;;9.40;99.90;;;;;;5045565;28;20029;-82
2022/11/10 07:53:12;;;;;;;6.93;1.95;;;9.50;99.90;;;;;;5039476;28;20026;-82
2022/11/10 07:55:40;;;;;;;7.82;2.35;;;9.50;99.90;;;;;;5042641;28;20100;-82
2022/11/10 07:58:08;;;;;;;6.15;1.75;;;9.50;99.90;;;;;;5036971;28;20037;-82
2022/11/10 08:00:36;;;;;;;8.48;2.17;;;9.60;99.90;;;;;;5040012;28;20025;-83
2022/11/10 08:03:07;;;;;;;5.50;1.42;;;9.60;99.90;;;;;;5052230;28;20036;-82
2022/11/10 08:05:33;;;;;;;11.77;2.13;;;9.70;99.90;;;;;;5034825;28;20393;-82
2022/11/10 08:07:59;;;;;;;6.70;1.60;;;9.80;99.90;;;;;;5031932;28;20060;-82
2022/11/10 08:10:28;;;;;;;7.05;1.83;;;9.80;99.90;;;;;;5033874;28;20045;-82
2022/11/10 08:12:56;;;;;;;10.77;2.13;;;9.90;99.90;;;;;;5036152;28;20136;-82
2022/11/10 08:15:22;;;;;;;8.52;2.58;;;9.90;99.90;;;;;;4999978;28;20059;-82
2022/11/10 08:17:48;;;;;;;9.73;2.55;;;10.00;99.90;;;;;;5016637;28;20024;-82
2022/11/10 08:20:19;;;;;;;6.32;2.03;;;10.00;99.90;;;;;;5011985;28;20443;-80
2022/11/10 08:22:45;;;;;;;8.27;2.40;;;10.10;99.90;;;;;;4997876;28;20034;-82
2022/11/10 08:25:11;;;;;;;8.27;2.30;;;10.20;99.90;;;;;;4996156;28;20025;-80
2022/11/10 08:27:38;;;;;;;7.93;2.05;;;10.30;99.90;;;;;;4998586;28;20034;-81
2022/11/10 08:30:05;;;;;;;7.20;2.20;;;10.40;99.90;;;;;;5009598;28;20026;-82
2022/11/10 08:32:30;;;;;;;9.80;2.67;;;10.50;99.90;;;;;;5013389;28;20032;-83
2022/11/10 08:34:56;;;;;;;10.85;2.25;;;10.60;99.90;;;;;;5014289;28;20025;-82
2022/11/10 08:37:22;;;;;;;8.32;1.83;;;10.70;99.90;;;;;;4994274;28;20427;-81
2022/11/10 08:39:48;;;;;;;7.07;2.20;;;10.70;99.90;;;;;;5016218;28;20045;-83
2022/11/10 08:42:14;;;;;;;10.50;2.92;;;10.90;99.90;;;;;;5005200;28;20076;-81
2022/11/10 08:44:40;;;;;;;13.23;2.80;;;10.90;99.90;;;;;;5008614;28;20025;-81
2022/11/10 08:47:05;;;;;;;8.75;3.28;;;11.00;99.90;;;;;;4998275;28;20030;-82
2022/11/10 08:49:31;;;;;;;9.02;2.70;;;11.20;99.90;;;;;;5015479;28;20033;-82
2022/11/10 08:51:57;;;;;;;8.60;2.80;;;12.00;99.90;;;;;;5013970;28;20044;-82
2022/11/10 08:54:24;;;;;;;12.25;3.55;;;13.20;99.90;;;;;;5011327;28;20030;-82
2022/11/10 08:56:50;;;;;;;11.88;2.70;;;14.20;99.90;;;;;;5013860;28;20041;-82
2022/11/10 08:59:15;;;;;;;11.60;2.47;;;15.10;99.90;;;;;;4996254;28;20022;-81
2022/11/10 09:01:44;;;;;;;12.77;2.20;;;15.80;99.90;;;;;;5022663;28;20473;-81
2022/11/10 09:04:14;;;;;;;8.45;1.95;;;16.30;99.90;;;;;;5008823;28;20018;-82
2022/11/10 09:06:40;;;;;;;11.90;2.70;;;16.90;99.90;;;;;;5008284;28;20045;-82
2022/11/10 09:09:06;;;;;;;11.93;2.58;;;17.20;99.90;;;;;;4995706;28;20022;-82
2022/11/10 09:11:31;;;;;;;7.15;1.98;;;17.20;99.90;;;;;;4995813;28;20072;-82
2022/11/10 09:13:57;;;;;;;5.63;1.92;;;17.30;99.90;;;;;;5006365;28;20042;-82
2022/11/10 09:16:23;;;;;;;12.15;3.05;;;17.60;99.90;;;;;;5024641;28;20108;-81
2022/11/10 09:18:50;;;;;;;7.45;2.22;;;18.00;99.90;;;;;;5012462;28;20017;-83
2022/11/10 09:21:16;;;;;;;12.30;2.35;;;18.40;99.90;;;;;;5027315;28;20037;-85
2022/11/10 09:23:42;;;;;;;9.57;2.03;;;18.90;99.90;;;;;;5029660;28;20028;-83
2022/11/10 09:26:08;;;;;;;7.45;2.08;;;19.20;99.90;;;;;;5032431;28;20466;-84
2022/11/10 09:28:36;;;;;;;7.90;1.90;;;19.30;99.90;;;;;;5029243;28;20029;-82
2022/11/10 09:31:02;;;;;;;9.60;2.60;;;19.40;99.90;;;;;;5031087;28;20385;-83
2022/11/10 09:33:28;;;;;;;7.32;1.80;;;19.60;99.90;;;;;;5029009;28;20018;-83
2022/11/10 09:36:00;;;;;;;5.20;1.48;;;19.80;99.90;;;;;;5028898;28;20153;-82
2022/11/10 09:38:26;;;;;;;7.78;1.67;;;20.30;99.90;;;;;;5030531;28;20371;-81
2022/11/10 09:41:07;;;;;;;9.45;2.50;;;20.80;99.90;;;;;;5030387;28;20051;-82
2022/11/10 09:43:46;;;;;;;5.93;1.58;;;20.90;99.90;;;;;;5023729;28;20029;-82
2022/11/10 09:46:22;;;;;;;8.00;1.85;;;21.00;99.90;;;;;;5027363;28;20022;-82
2022/11/10 09:49:05;;;;;;;8.05;1.75;;;21.30;99.90;;;;;;5029584;28;20009;-81
2022/11/10 09:51:37;;;;;;;9.77;2.13;;;21.40;99.90;;;;;;5028051;28;20033;-82
2022/11/10 09:54:20;;;;;;;7.88;1.90;;;21.60;99.90;;;;;;5011663;28;20168;-81
2022/11/10 09:56:46;;;;;;;;;;;21.70;99.90;;;;;;5030137;28;20018;-82
2022/11/10 09:59:28;;;;;;;9.88;2.22;;;21.60;99.90;;;;;;5028594;28;20556;-81
2022/11/10 10:02:14;;;;;;;11.63;3.30;;;21.80;99.90;;;;;;5030049;28;20101;-81
2022/11/10 10:04:45;;;;;;;8.30;2.00;;;21.80;99.90;;;;;;5030005;28;20334;-81
2022/11/10 10:07:21;;;;;;;6.65;1.90;;;21.80;99.90;;;;;;5026565;28;20084;-82
2022/11/10 10:10:12;;;;;;;7.85;2.03;;;22.00;99.90;;;;;;5028179;28;20100;-82
2022/11/10 10:12:43;;;;;;;8.80;2.25;;;22.30;99.90;;;;;;5028949;28;20037;-81
2022/11/10 10:15:47;;;;;;;8.73;2.05;;;22.40;99.90;;;;;;4991924;28;20049;-82
2022/11/10 10:18:25;;;;;;;7.05;1.90;;;22.40;99.90;;;;;;4994553;28;20147;-82
2022/11/10 10:21:22;;;;;;;10.18;1.80;;;22.40;99.90;;;;;;4993140;28;20556;-82
2022/11/10 10:23:57;;;;;;;5.82;1.65;;;22.70;99.90;;;;;;5008540;28;20037;-82
2022/11/10 10:26:28;;;;;;;8.32;2.10;;;22.90;99.90;;;;;;4990175;28;20471;-82
2022/11/10 10:29:02;;;;;;;7.85;2.00;;;22.90;99.90;;;;;;4994192;28;20091;-82
2022/11/10 10:31:57;;;;;;;8.65;2.35;;;22.70;99.90;;;;;;4993149;28;20118;-83
2022/11/10 10:34:33;;;;;;;8.07;1.83;;;22.60;99.90;;;;;;5007683;28;20520;-83
2022/11/10 10:37:03;;;;;;;8.48;2.17;;;22.40;99.90;;;;;;4999780;28;20159;-81
2022/11/10 10:39:41;;;;;;;7.22;1.52;;;22.30;99.90;;;;;;4993410;28;20098;-82
2022/11/10 10:42:23;;;;;;;10.10;2.55;;;22.50;99.90;;;;;;4988666;28;20038;-83
2022/11/10 10:45:16;;;;;;;9.85;2.33;;;22.60;99.90;;;;;;4989791;28;20027;-83
2022/11/10 10:47:42;;;;;;;5.57;1.70;;;22.30;99.90;;;;;;4992468;28;20015;-83
2022/11/10 10:50:31;;;;;;;7.15;2.08;;;22.30;99.90;;;;;;4994345;28;20050;-83
2022/11/10 10:53:21;;;;;;;10.10;1.98;;;22.50;99.90;;;;;;4993400;28;20143;-83
2022/11/10 10:56:06;;;;;;;6.68;2.05;;;22.60;99.90;;;;;;4993194;28;20092;-84
2022/11/10 10:58:50;;;;;;;9.23;2.90;;;22.60;99.90;;;;;;4993588;28;20014;-82
2022/11/10 11:01:23;;;;;;;8.70;2.05;;;22.70;99.90;;;;;;4982560;28;20034;-83
2022/11/10 11:03:53;;;;;;;8.25;2.20;;;22.10;99.90;;;;;;4991353;28;20030;-82
2022/11/10 11:06:28;;;;;;;7.68;1.85;;;22.00;99.90;;;;;;4990199;28;20018;-82
2022/11/10 11:09:00;;;;;;;7.88;1.65;;;22.20;99.90;;;;;;4988045;28;20481;-83
2022/11/10 11:11:30;;;;;;;10.77;2.35;;;22.40;99.90;;;;;;4988220;28;20038;-82
2022/11/10 11:14:23;;;;;;;5.45;1.75;;;22.70;99.90;;;;;;5002994;28;20076;-81
2022/11/10 11:17:00;;;;;;;7.50;1.98;;;23.10;99.90;;;;;;5029904;28;20025;-81
2022/11/10 11:19:32;;;;;;;6.57;1.52;;;23.30;99.90;;;;;;5023124;28;20363;-82
2022/11/10 11:22:22;;;;;;;5.70;1.60;;;23.40;99.90;;;;;;5028890;28;20057;-83
2022/11/10 11:25:11;;;;;;;6.35;1.90;;;23.40;99.90;;;;;;5031356;28;20132;-83
2022/11/10 11:28:02;;;;;;;7.93;1.63;;;23.40;99.90;;;;;;5024045;28;20038;-82
2022/11/10 11:30:51;;;;;;;8.70;2.28;;;23.10;99.90;;;;;;5025494;28;20026;-82
2022/11/10 11:33:33;;;;;;;6.60;1.60;;;22.70;99.90;;;;;;5028643;28;20041;-83
2022/11/10 11:36:21;;;;;;;6.93;1.80;;;22.40;99.90;;;;;;5028378;28;20511;-83
2022/11/10 11:39:13;;;;;;;7.68;1.65;;;22.40;99.90;;;;;;5018223;28;20536;-83
2022/11/10 11:41:59;;;;;;;7.47;1.88;;;22.80;99.90;;;;;;4992582;28;20045;-82
2022/11/10 11:44:40;;;;;;;8.68;2.22;;;22.90;99.90;;;;;;4936105;29;20486;-83
2022/11/10 11:47:18;;;;;;;6.80;1.55;;;23.00;99.90;;;;;;5024070;28;20040;-83
2022/11/10 11:49:47;;;;;;;8.45;2.25;;;22.70;99.90;;;;;;5023370;28;20161;-83
2022/11/10 11:52:44;;;;;;;6.50;1.83;;;22.40;99.90;;;;;;5022082;28;20041;-83
2022/11/10 11:55:32;;;;;;;6.40;1.90;;;22.30;99.90;;;;;;5019552;28;20619;-84
2022/11/10 11:58:34;;;;;;;6.72;1.60;;;22.70;99.90;;;;;;5028384;28;20022;-84
2022/11/10 12:01:18;;;;;;;5.97;1.70;;;22.90;99.90;;;;;;5024543;28;20103;-85
2022/11/10 12:04:19;;;;;;;6.50;1.65;;;23.10;99.90;;;;;;5024750;28;20037;-83
2022/11/10 12:07:13;;;;;;;7.32;1.50;;;22.80;99.90;;;;;;5009835;28;20053;-83
2022/11/10 12:09:47;;;;;;;6.13;1.50;;;21.60;99.90;;;;;;5028716;28;20033;-83
2022/11/10 12:12:13;;;;;;;8.88;2.05;;;20.70;99.90;;;;;;5026432;28;20072;-82
2022/11/10 12:14:42;;;;;;;5.72;1.38;;;19.90;99.90;;;;;;5029558;28;20049;-82
2022/11/10 12:17:11;;;;;;;7.85;2.28;;;19.20;99.90;;;;;;5025600;28;20030;-82
2022/11/10 12:19:51;;;;;;;6.80;1.70;;;18.80;99.90;;;;;;5029139;28;20029;-82
2022/11/10 12:22:55;;;;;;;8.55;1.92;;;18.60;99.90;;;;;;5018749;28;20374;-82
2022/11/10 12:25:30;;;;;;;7.43;1.80;;;18.30;99.90;;;;;;5029910;28;20034;-82
2022/11/10 12:28:10;;;;;;;8.00;1.80;;;18.20;99.90;;;;;;5024322;28;20017;-82
2022/11/10 12:31:10;;;;;;;10.88;1.42;;;18.30;99.90;;;;;;5017513;28;20037;-84
2022/11/10 12:33:58;;;;;;;6.28;1.40;;;18.90;99.90;;;;;;5019926;28;20064;-86
2022/11/10 12:36:27;;;;;;;7.00;2.13;;;19.90;99.90;;;;;;5020869;28;20045;-84
2022/11/10 12:38:56;;;;;;;7.22;1.90;;;20.50;99.90;;;;;;5014399;28;20026;-83
2022/11/10 12:41:26;;;;;;;7.72;2.15;;;20.30;99.90;;;;;;5021692;28;20064;-85
2022/11/10 12:44:26;;;;;;;7.20;1.73;;;19.70;99.90;;;;;;5021281;28;20033;-84
2022/11/10 12:46:58;;;;;;;8.60;2.17;;;19.00;99.90;;;;;;5015725;28;20030;-84
2022/11/10 12:49:36;;;;;;;5.90;1.52;;;18.60;99.90;;;;;;5021399;28;20488;-84
2022/11/10 12:52:32;;;;;;;5.03;1.42;;;18.20;99.90;;;;;;5021711;28;20124;-87
2022/11/10 12:55:00;;;;;;;6.97;1.83;;;18.00;99.90;;;;;;5012788;28;20658;-83
2022/11/10 12:57:41;;;;;;;7.35;1.65;;;17.80;99.90;;;;;;5023932;28;20116;-86
2022/11/10 13:00:29;;;;;;;6.18;1.55;;;17.60;99.90;;;;;;5008967;28;20046;-82
2022/11/10 13:02:57;;;;;;;8.98;1.80;;;17.30;99.90;;;;;;5007396;28;20076;-82
2022/11/10 13:05:39;;;;;;;6.10;1.20;;;17.10;99.90;;;;;;5019556;28;20108;-84
2022/11/10 13:08:20;;;;;;;7.15;1.67;;;17.10;99.90;;;;;;5010871;28;20041;-83
2022/11/10 13:11:03;;;;;;;5.45;1.42;;;17.00;99.90;;;;;;5020935;28;20601;-83
2022/11/10 13:13:44;;;;;;;10.38;1.75;;;17.00;99.90;;;;;;5020832;28;20071;-85
2022/11/10 13:16:30;;;;;;;5.60;1.30;;;17.10;99.90;;;;;;5021044;28;20390;-83
2022/11/10 13:19:04;;;;;;;6.35;1.25;;;17.40;99.90;;;;;;5022624;28;20025;-84
2022/11/10 13:21:55;;;;;;;6.25;1.45;;;17.90;99.90;;;;;;5019996;28;20060;-82
2022/11/10 13:24:34;;;;;;;7.75;1.52;;;18.50;99.90;;;;;;5021510;28;20520;-83